createdAt,value
2022-08-16T00:00:22.317Z,10.73
2022-08-16T00:05:48.641Z,9.98
2022-08-16T00:10:53.416Z,9.93
2022-08-16T00:15:56.001Z,10.23
2022-08-16T00:20:58.996Z,10.40
2022-08-16T00:31:24.107Z,10.38
2022-08-16T00:41:29.818Z,10.40
2022-08-16T00:57:59.558Z,11.52
2022-08-16T01:03:11.775Z,12.30
2022-08-16T01:08:35.043Z,11.93
2022-08-16T01:13:39.970Z,11.93
2022-08-16T01:18:45.790Z,12.48
2022-08-16T01:24:44.395Z,12.90
2022-08-16T01:29:57.947Z,13.02
2022-08-16T01:35:04.242Z,10.20
2022-08-16T01:40:07.837Z,12.45
2022-08-16T01:45:14.244Z,11.95
2022-08-16T01:50:42.033Z,12.55
2022-08-16T02:00:48.130Z,12.18
2022-08-16T02:05:52.714Z,11.95
2022-08-16T02:10:56.353Z,11.57
2022-08-16T02:15:59.033Z,12.13
2022-08-16T02:21:01.791Z,12.18
2022-08-16T02:26:07.431Z,12.10
2022-08-16T02:31:12.828Z,12.32
2022-08-16T02:36:47.687Z,12.38
2022-08-16T02:42:23.125Z,13.00
2022-08-16T02:48:00.264Z,12.80
2022-08-16T02:54:01.738Z,12.15
2022-08-16T02:59:24.310Z,14.18
2022-08-16T03:04:51.937Z,13.77
2022-08-16T03:09:56.410Z,15.68
2022-08-16T03:21:09.985Z,13.90
2022-08-16T03:26:35.591Z,13.75
2022-08-16T03:31:40.655Z,15.57
2022-08-16T03:49:36.402Z,12.80
2022-08-16T03:54:57.569Z,15.88
2022-08-16T04:00:35.566Z,14.95
2022-08-16T04:05:46.714Z,15.25
2022-08-16T04:17:59.364Z,14.05
2022-08-16T04:23:52.275Z,14.40
2022-08-16T04:29:17.257Z,14.52
2022-08-16T04:40:11.455Z,15.50
2022-08-16T04:53:04.344Z,16.60
2022-08-16T04:58:53.604Z,15.55
2022-08-16T05:04:01.806Z,16.27
2022-08-16T05:16:20.108Z,17.05
2022-08-16T05:39:30.537Z,15.65
2022-08-16T05:44:36.976Z,16.17
2022-08-16T05:49:50.814Z,16.80
2022-08-16T05:56:49.048Z,15.90
2022-08-16T06:09:43.365Z,16.75
2022-08-16T06:15:38.653Z,13.75
2022-08-16T06:27:39.658Z,13.45
2022-08-16T06:32:48.407Z,14.57
2022-08-16T06:38:38.503Z,13.60
2022-08-16T06:44:39.566Z,13.10
2022-08-16T06:50:21.970Z,12.98
2022-08-16T06:55:47.737Z,12.40
2022-08-16T07:01:02.691Z,11.65
2022-08-16T07:06:10.627Z,12.23
2022-08-16T07:23:39.060Z,10.48
2022-08-16T07:28:58.235Z,10.45
2022-08-16T07:34:00.625Z,9.82
2022-08-16T07:39:08.976Z,10.48
2022-08-16T07:44:16.187Z,9.88
2022-08-16T07:49:21.005Z,9.73
2022-08-16T07:54:32.127Z,9.05
2022-08-16T07:59:45.716Z,9.88
2022-08-16T08:04:51.019Z,9.52
2022-08-16T08:09:53.677Z,9.23
2022-08-16T08:14:56.641Z,7.57
2022-08-16T08:19:59.428Z,7.40
2022-08-16T08:25:05.365Z,7.40
2022-08-16T08:30:50.981Z,7.45
2022-08-16T08:35:39.751Z,7.38
2022-08-16T08:40:46.304Z,7.18
2022-08-16T08:45:53.764Z,7.65
2022-08-16T08:57:03.660Z,7.38
2022-08-16T09:02:15.063Z,8.00
2022-08-16T09:07:28.174Z,9.32
2022-08-16T09:12:36.151Z,8.48
2022-08-16T09:17:54.658Z,8.00
2022-08-16T09:23:03.490Z,7.05
2022-08-16T09:29:13.949Z,6.55
2022-08-16T09:33:45.561Z,5.60
2022-08-16T09:38:59.869Z,5.93
2022-08-16T09:45:10.846Z,5.63
2022-08-16T09:49:36.887Z,4.57
2022-08-16T09:54:44.544Z,5.43
2022-08-16T09:59:47.866Z,5.57
2022-08-16T10:05:01.505Z,5.00
2022-08-16T10:10:08.498Z,5.57
2022-08-16T10:15:21.053Z,5.50
2022-08-16T10:20:25.837Z,5.18
2022-08-16T10:27:00.649Z,5.60
2022-08-16T10:30:56.568Z,5.47
2022-08-16T10:36:05.892Z,5.70
2022-08-16T10:41:11.264Z,5.53
2022-08-16T10:46:39.959Z,5.80
2022-08-16T10:52:03.187Z,5.13
2022-08-16T10:57:04.893Z,5.93
2022-08-16T11:02:59.266Z,5.43
2022-08-16T11:07:45.508Z,5.28
2022-08-16T11:12:56.536Z,5.43
2022-08-16T11:23:23.688Z,5.03
2022-08-16T11:33:53.571Z,5.60
2022-08-16T11:39:00.831Z,5.25
2022-08-16T11:44:03.931Z,5.15
2022-08-16T11:49:12.722Z,5.20
2022-08-16T11:54:20.429Z,5.00
2022-08-16T11:59:29.420Z,4.40
2022-08-16T12:04:34.198Z,4.90
2022-08-16T12:09:43.222Z,4.70
2022-08-16T12:14:59.980Z,5.38
2022-08-16T12:20:07.629Z,5.03
2022-08-16T12:25:15.194Z,8.35
2022-08-16T12:30:27.114Z,5.40
2022-08-16T12:35:36.125Z,4.82
2022-08-16T12:40:42.578Z,4.97
2022-08-16T12:45:51.046Z,5.45
2022-08-16T12:50:54.817Z,6.72
2022-08-16T12:56:02.328Z,5.20
2022-08-16T13:01:10.308Z,6.95
2022-08-16T13:06:20.173Z,4.70
2022-08-16T13:11:35.522Z,4.53
2022-08-16T13:22:04.995Z,4.53
2022-08-16T13:27:07.453Z,4.55
2022-08-16T13:32:39.692Z,4.65
2022-08-16T13:37:36.389Z,4.95
2022-08-16T13:42:41.451Z,5.13
2022-08-16T13:47:45.894Z,4.40
2022-08-16T13:52:49.897Z,4.38
2022-08-16T13:58:34.669Z,4.38
2022-08-16T14:03:18.409Z,5.25
2022-08-16T14:08:25.188Z,4.60
2022-08-16T14:13:29.524Z,4.82
2022-08-16T14:18:32.022Z,4.25
2022-08-16T14:23:35.460Z,4.88
2022-08-16T14:28:37.996Z,5.07
2022-08-16T14:33:40.824Z,4.80
2022-08-16T14:38:43.203Z,4.93
2022-08-16T14:44:12.612Z,4.35
2022-08-16T14:49:17.268Z,4.10
2022-08-16T14:54:21.684Z,4.90
2022-08-16T14:59:25.226Z,4.03
2022-08-16T15:04:40.409Z,3.80
2022-08-16T15:10:01.224Z,4.00
2022-08-16T15:15:12.010Z,4.00
2022-08-16T15:20:17.938Z,4.30
2022-08-16T15:25:30.347Z,4.15
2022-08-16T15:30:57.176Z,4.38
2022-08-16T15:35:58.257Z,4.20
2022-08-16T15:41:01.290Z,4.13
2022-08-16T15:46:35.104Z,9.60
2022-08-16T15:51:45.549Z,4.85
2022-08-16T15:56:51.632Z,4.10
2022-08-16T16:01:56.543Z,4.32
2022-08-16T16:07:00.769Z,4.40
2022-08-16T16:12:16.387Z,4.20
2022-08-16T16:17:29.401Z,4.22
2022-08-16T16:22:31.926Z,4.53
2022-08-16T16:27:35.358Z,3.83
2022-08-16T16:32:39.083Z,3.53
2022-08-16T16:37:44.273Z,4.47
2022-08-16T16:42:46.674Z,4.18
2022-08-16T16:47:50.035Z,4.18
2022-08-16T16:52:57.290Z,3.88
2022-08-16T16:58:35.075Z,3.88
2022-08-16T17:03:38.619Z,3.85
2022-08-16T17:08:42.884Z,3.70
2022-08-16T17:13:46.281Z,4.30
2022-08-16T17:19:17.078Z,3.80
2022-08-16T17:24:17.425Z,4.07
2022-08-16T17:29:22.110Z,3.50
2022-08-16T17:34:34.563Z,3.60
2022-08-16T17:40:00.481Z,4.57
2022-08-16T17:45:11.713Z,6.05
2022-08-16T17:50:14.250Z,4.53
2022-08-16T17:55:24.180Z,5.50
2022-08-16T18:00:28.209Z,5.43
2022-08-16T18:05:40.989Z,5.13
2022-08-16T18:10:44.811Z,4.47
2022-08-16T18:15:51.258Z,5.18
2022-08-16T18:21:12.199Z,4.28
2022-08-16T18:26:14.723Z,4.45
2022-08-16T18:31:20.240Z,4.93
2022-08-16T18:36:23.228Z,6.38
2022-08-16T18:41:27.209Z,7.47
2022-08-16T18:46:29.810Z,9.60
2022-08-16T18:51:32.230Z,11.75
2022-08-16T18:56:55.138Z,12.13
2022-08-16T19:02:04.761Z,9.57
2022-08-16T19:07:10.143Z,7.97
2022-08-16T19:12:15.909Z,28.10
2022-08-16T19:17:18.599Z,44.25
2022-08-16T19:22:52.086Z,15.45
2022-08-16T19:27:51.709Z,9.40
2022-08-16T19:32:55.961Z,8.60
2022-08-16T19:37:58.679Z,8.10
2022-08-16T19:43:01.359Z,8.98
2022-08-16T19:48:09.906Z,7.95
2022-08-16T19:54:06.309Z,8.25
2022-08-16T19:59:40.131Z,8.40
2022-08-16T20:10:35.142Z,9.50
2022-08-16T20:15:40.911Z,17.25
2022-08-16T20:20:44.119Z,22.73
2022-08-16T20:25:49.866Z,15.13
2022-08-16T20:30:52.527Z,25.55
2022-08-16T20:35:54.933Z,10.82
2022-08-16T20:45:59.520Z,9.13
2022-08-16T20:51:01.976Z,9.70
2022-08-16T21:01:07.812Z,10.95
2022-08-16T21:06:10.235Z,10.90
2022-08-16T21:16:16.649Z,11.02
2022-08-16T21:21:18.969Z,11.25
2022-08-16T21:26:25.189Z,11.35
2022-08-16T21:31:28.632Z,11.38
2022-08-16T21:36:35.955Z,12.13
2022-08-16T21:41:38.987Z,12.55
2022-08-16T21:46:41.389Z,11.70
2022-08-16T21:51:43.919Z,12.15
2022-08-16T21:56:46.313Z,12.13
2022-08-16T22:01:48.857Z,11.68
2022-08-16T22:06:51.413Z,12.15
2022-08-16T22:11:53.925Z,12.05
2022-08-16T22:16:56.516Z,11.90
2022-08-16T22:27:02.436Z,11.60
2022-08-16T22:32:06.311Z,11.80
2022-08-16T22:37:08.841Z,11.75
2022-08-16T22:42:11.436Z,11.07
2022-08-16T22:47:14.806Z,11.88
2022-08-16T22:52:56.740Z,12.30
2022-08-16T22:57:40.406Z,12.48
2022-08-16T23:02:55.040Z,11.77
2022-08-16T23:07:57.702Z,11.68
2022-08-16T23:13:04.497Z,13.65
2022-08-16T23:18:07.558Z,12.95
2022-08-16T23:23:20.832Z,12.90
2022-08-16T23:28:27.654Z,11.93
2022-08-16T23:33:30.183Z,12.82
2022-08-16T23:38:37.778Z,12.25
2022-08-16T23:43:43.675Z,11.43
2022-08-16T23:49:56.186Z,13.18
2022-08-16T23:54:11.674Z,12.70
2022-08-16T23:59:14.636Z,12.43
